Winchester, VA (22602)

9:34 PM EST on February 10, 2016 (GMT -0500)
Twin Lakes Overlook | | Change Station
CLOSE
Current Station
Personal Weather Station
Location: Winchester, VA
Elevation: 575 ft
Nearby Weather Stations

Elev 575 ft 39.17 °N, 78.10 °W | Updated 10 minutes ago

Overcast
Overcast
24.1 °F
Feels Like 16 °F
N
7.0
Wind Variable Wind from WNW
Gusts 19.0 mph

Today
High -- | Low -- °F
--% Chance of Precip.
Yesterday
High -- | Low -- °F
Precip. -- in
Pressure 29.91 in
Visibility 10.0 miles
Clouds Overcast 11000 ft
Windchill 16 °F
Dew Point 10 °F
Humidity 54%
Rainfall 0.00 in
Snow Depth Not available.
7:10 AM 5:43 PM
Waxing Crescent, 8% visible
METAR KOKV 110215Z AUTO 28014G19KT 10SM OVC110 M04/M13 A2991 RMK AO2
Pressure 29.91 in
Visibility 10.0 miles
Clouds Overcast 11000 ft
Windchill 16 °F
Dew Point 10 °F
Humidity 54%
Rainfall 0.00 in
Snow Depth Not available.
7:10 AM 5:43 PM
Waxing Crescent, 8% visible
METAR KOKV 110215Z AUTO 28014G19KT 10SM OVC110 M04/M13 A2991 RMK AO2

10-Day Weather Forecast

Almanac

Astronomy

Feb. 10, 2016 Rise Set
Actual Time
Civil Twilight
Nautical Twilight
Astronomical Twilight
Moon
Length of Visible Light
Length of Day
Tomorrow will be .
, % of the Moon is Illuminated

Today's Extremes

State Highs State Lows

Community

WunderPhotos

Upload Photos

1,891,986 photos uploaded!

WunderBlog® & News

Nearby

Air Quality

  Air Quality AQ Index Pollutant
Not available.

Snow Depth

Station Depth Elevation

Earthquake Activity

City Distance Mag. Time & Date
Minimum magnitude displayed is 2.5.

Coastal Water Temperatures

Place Temperature

Stations

Nearby Weather Stations

Station Location Temp. Windchill Dew Point Humidity Wind Precip. Elev Updated Type
                   

Watches & Warnings

There are currently no watches in effect.